Time;durP1;ratioP1;P1;durP2;ratioP2;P2;SDS_P1;SDS_P2;PMS_P1;PMS_P2;Temp;Humidity;BMP_temperature;BMP_pressure;BME280_temperature;BME280_humidity;BME280_pressure;Samples;Min_cycle;Max_cycle;Signal;HPM_P1;HPM_P2
2020/12/23 00:00:11;;;;;;;;;;;;;;;;;;5035457;28;1001;-79
2020/12/23 00:02:36;;;;;;;;;;;;;;;;;;5035496;28;1906;-79
2020/12/23 00:05:04;;;;;;;;;;;;;;;;;;5035354;28;1382;-79
2020/12/23 00:07:29;;;;;;;;;;;;;;;;;;5035650;28;1235;-79
2020/12/23 00:09:55;;;;;;;;;;;;;;;;;;5036825;28;1141;-79
2020/12/23 00:12:20;;;;;;;;;;;;;;;;;;5035621;28;1352;-79
2020/12/23 00:14:45;;;;;;;;;;;;;;;;;;5035536;28;1120;-79
2020/12/23 00:17:10;;;;;;;;;;;;;;;;;;5035284;28;852;-79
2020/12/23 00:19:36;;;;;;;;;;;;;;;;;;5035080;28;1341;-79
2020/12/23 00:22:01;;;;;;;;;;;;;;;;;;5036511;28;1890;-79
2020/12/23 00:24:27;;;;;;;;;;;;;;;;;;5036179;28;916;-79
2020/12/23 00:26:53;;;;;;;;;;;;;;;;;;5035131;28;1417;-79
2020/12/23 00:29:18;;;;;;;;;;;;;;;;;;5036248;28;897;-79
2020/12/23 00:31:43;;;;;;;;;;;;;;;;;;5036077;28;1389;-79
2020/12/23 00:34:08;;;;;;;;;;;;;;;;;;5035112;28;1105;-79
2020/12/23 00:36:34;;;;;;;;;;;;;;;;;;5036087;28;881;-79
2020/12/23 00:38:59;;;;;;;;;;;;;;;;;;5035899;28;996;-80
2020/12/23 00:41:24;;;;;;;;;;;;;;;;;;5034667;28;1902;-81
2020/12/23 00:43:49;;;;;;;;;;;;;;;;;;5035195;28;1219;-82
2020/12/23 00:46:15;;;;;;;;;;;;;;;;;;5035231;28;1575;-82
2020/12/23 00:48:41;;;;;;;;;;;;;;;;;;5035129;28;1124;-83
2020/12/23 00:51:09;;;;;;;;;;;;;;;;;;5034630;28;1254;-82
2020/12/23 00:53:35;;;;;;;;;;;;;;;;;;5034463;28;1413;-81
2020/12/23 00:56:00;;;;;;;;;;;;;;;;;;5034431;28;1757;-81
2020/12/23 00:58:25;;;;;;;;;;;;;;;;;;5034622;28;1185;-83
2020/12/23 01:00:50;;;;;;;;;;;;;;;;;;5034360;28;1953;-82
2020/12/23 01:03:15;;;;;;;;;;;;;;;;;;5035670;28;1330;-81
2020/12/23 01:05:41;;;;;;;;;;;;;;;;;;5035519;28;1059;-82
2020/12/23 01:08:06;;;;;;;;;;;;;;;;;;5035536;28;790;-82
2020/12/23 01:10:31;;;;;;;;;;;;;;;;;;5035226;28;977;-81
2020/12/23 01:12:56;;;;;;;;;;;;;;;;;;5034036;28;1394;-82
2020/12/23 01:15:24;;;;;;;;;;;;;;;;;;5035539;28;968;-82
2020/12/23 01:17:49;;;;;;;;;;;;;;;;;;5034019;28;1144;-82
2020/12/23 01:20:14;;;;;;;;;;;;;;;;;;5034073;28;1132;-82
2020/12/23 01:22:40;;;;;;;;;;;;;;;;;;5034953;28;1949;-82
2020/12/23 01:25:05;;;;;;;;;;;;;;;;;;5035139;28;877;-81
2020/12/23 01:27:30;;;;;;;;;;;;;;;;;;5034865;28;885;-82
2020/12/23 01:29:55;;;;;;;;;;;;;;;;;;5033605;28;1294;-81
2020/12/23 01:32:21;;;;;;;;;;;;;;;;;;5033661;28;1279;-82
2020/12/23 01:34:46;;;;;;;;;;;;;;;;;;5033689;28;1477;-81
2020/12/23 01:37:11;;;;;;;;;;;;;;;;;;5035061;28;841;-83
2020/12/23 01:39:36;;;;;;;;;;;;;;;;;;5033554;28;1204;-82
2020/12/23 01:42:02;;;;;;;;;;;;;;;;;;5034890;28;1949;-81
2020/12/23 01:44:27;;;;;;;;;;;;;;;;;;5033549;28;1452;-81
2020/12/23 01:46:52;;;;;;;;;;;;;;;;;;5033831;28;1203;-81
2020/12/23 01:49:18;;;;;;;;;;;;;;;;;;5033628;28;893;-81
2020/12/23 01:51:44;;;;;;;;;;;;;;;;;;5034512;28;1376;-81
2020/12/23 01:54:12;;;;;;;;;;;;;;;;;;5033283;28;2320;-81
2020/12/23 01:56:40;;;;;;;;;;;;;;;;;;5033694;28;1216;-81
2020/12/23 01:59:06;;;;;;;;;;;;;;;;;;5033518;28;1330;-81
2020/12/23 02:01:35;;;;;;;;;;;;;;;;;;5034412;28;1897;-82
2020/12/23 02:04:01;;;;;;;;;;;;;;;;;;5034587;28;909;-81
2020/12/23 02:06:27;;;;;;;;;;;;;;;;;;5034814;28;952;-81
2020/12/23 02:08:53;;;;;;;;;;;;;;;;;;5034528;28;885;-82
2020/12/23 02:11:19;;;;;;;;;;;;;;;;;;5034204;28;1473;-81
2020/12/23 02:13:45;;;;;;;;;;;;;;;;;;5033068;28;1204;-82
2020/12/23 02:16:11;;;;;;;;;;;;;;;;;;5033329;28;1208;-82
2020/12/23 02:18:37;;;;;;;;;;;;;;;;;;5033397;28;1318;-81
2020/12/23 02:21:02;;;;;;;;;;;;;;;;;;5032649;28;1957;-83
2020/12/23 02:23:28;;;;;;;;;;;;;;;;;;5032898;28;1495;-83
2020/12/23 02:25:53;;;;;;;;;;;;;;;;;;5032889;28;1351;-82
2020/12/23 02:28:21;;;;;;;;;;;;;;;;;;5034320;28;782;-82
2020/12/23 02:30:46;;;;;;;;;;;;;;;;;;5033905;28;747;-81
2020/12/23 02:33:11;;;;;;;;;;;;;;;;;;5034531;28;1322;-82
2020/12/23 02:35:37;;;;;;;;;;;;;;;;;;5034134;28;922;-82
2020/12/23 02:38:02;;;;;;;;;;;;;;;;;;5033071;28;1751;-82
2020/12/23 02:40:27;;;;;;;;;;;;;;;;;;5033259;28;846;-82
2020/12/23 02:42:53;;;;;;;;;;;;;;;;;;5033964;28;1953;-81
2020/12/23 02:45:18;;;;;;;;;;;;;;;;;;5034124;28;784;-82
2020/12/23 02:47:43;;;;;;;;;;;;;;;;;;5034136;28;921;-81
2020/12/23 02:50:08;;;;;;;;;;;;;;;;;;5032670;28;985;-81
2020/12/23 02:52:34;;;;;;;;;;;;;;;;;;5034969;28;1362;-82
2020/12/23 02:54:59;;;;;;;;;;;;;;;;;;5034376;28;960;-82
2020/12/23 02:57:24;;;;;;;;;;;;;;;;;;5033411;28;1324;-82
2020/12/23 02:59:50;;;;;;;;;;;;;;;;;;5032895;28;1419;-82
2020/12/23 03:02:15;;;;;;;;;;;;;;;;;;5034319;28;1894;-82
2020/12/23 03:04:40;;;;;;;;;;;;;;;;;;5033123;28;897;-81
2020/12/23 03:07:06;;;;;;;;;;;;;;;;;;5034257;28;909;-81
2020/12/23 03:09:31;;;;;;;;;;;;;;;;;;5034555;28;842;-82
2020/12/23 03:11:56;;;;;;;;;;;;;;;;;;5034282;28;1310;-82
2020/12/23 03:14:21;;;;;;;;;;;;;;;;;;5033834;28;1185;-82
2020/12/23 03:16:47;;;;;;;;;;;;;;;;;;5032941;28;850;-82
2020/12/23 03:19:12;;;;;;;;;;;;;;;;;;5034486;28;925;-82
2020/12/23 03:21:37;;;;;;;;;;;;;;;;;;5033855;28;1945;-82
2020/12/23 03:24:03;;;;;;;;;;;;;;;;;;5034261;28;795;-82
2020/12/23 03:26:28;;;;;;;;;;;;;;;;;;5032865;28;1196;-82
2020/12/23 03:28:53;;;;;;;;;;;;;;;;;;5033065;28;886;-82
2020/12/23 03:31:18;;;;;;;;;;;;;;;;;;5032772;28;1287;-82
2020/12/23 03:33:44;;;;;;;;;;;;;;;;;;5034288;28;820;-82
2020/12/23 03:36:09;;;;;;;;;;;;;;;;;;5032751;28;830;-82
2020/12/23 03:38:35;;;;;;;;;;;;;;;;;;5034178;28;841;-81
2020/12/23 03:41:00;;;;;;;;;;;;;;;;;;5034182;28;1947;-82
2020/12/23 03:43:25;;;;;;;;;;;;;;;;;;5033139;28;1393;-82
2020/12/23 03:45:51;;;;;;;;;;;;;;;;;;5034051;28;849;-82
2020/12/23 03:48:16;;;;;;;;;;;;;;;;;;5032678;28;1637;-82
2020/12/23 03:50:42;;;;;;;;;;;;;;;;;;5034120;28;827;-82
2020/12/23 03:53:08;;;;;;;;;;;;;;;;;;5036839;28;1354;-82
2020/12/23 03:55:33;;;;;;;;;;;;;;;;;;5037711;28;885;-82
2020/12/23 03:57:58;;;;;;;;;;;;;;;;;;5036428;28;882;-82
2020/12/23 04:00:23;;;;;;;;;;;;;;;;;;5037205;28;878;-82
2020/12/23 04:02:49;;;;;;;;;;;;;;;;;;5035872;28;1951;-83
2020/12/23 04:05:14;;;;;;;;;;;;;;;;;;5036292;28;920;-82
2020/12/23 04:07:40;;;;;;;;;;;;;;;;;;5037190;28;836;-82
2020/12/23 04:10:06;;;;;;;;;;;;;;;;;;5036432;28;759;-82
2020/12/23 04:12:32;;;;;;;;;;;;;;;;;;5036906;28;1326;-82
2020/12/23 04:14:57;;;;;;;;;;;;;;;;;;5035975;28;1363;-81
2020/12/23 04:17:23;;;;;;;;;;;;;;;;;;5037094;28;1024;-82
2020/12/23 04:19:48;;;;;;;;;;;;;;;;;;5036926;28;873;-81
2020/12/23 04:22:13;;;;;;;;;;;;;;;;;;5035653;28;1894;-82
2020/12/23 04:24:39;;;;;;;;;;;;;;;;;;5035904;28;1371;-82
2020/12/23 04:27:04;;;;;;;;;;;;;;;;;;5035611;28;1237;-82
2020/12/23 04:29:30;;;;;;;;;;;;;;;;;;5035583;28;1372;-82
2020/12/23 04:31:55;;;;;;;;;;;;;;;;;;5036904;28;1286;-84
2020/12/23 04:34:20;;;;;;;;;;;;;;;;;;5035613;28;1213;-82
2020/12/23 04:36:45;;;;;;;;;;;;;;;;;;5035368;28;1617;-82
2020/12/23 04:39:11;;;;;;;;;;;;;;;;;;5036582;28;984;-81
2020/12/23 04:41:36;;;;;;;;;;;;;;;;;;5036356;28;1889;-81
2020/12/23 04:44:02;;;;;;;;;;;;;;;;;;5036690;28;866;-81
2020/12/23 04:46:29;;;;;;;;;;;;;;;;;;5035493;28;1306;-81
2020/12/23 04:48:58;;;;;;;;;;;;;;;;;;5035331;28;1215;-81
2020/12/23 04:51:27;;;;;;;;;;;;;;;;;;5035300;28;1302;-81
2020/12/23 04:53:53;;;;;;;;;;;;;;;;;;5035279;28;1189;-81
2020/12/23 04:56:18;;;;;;;;;;;;;;;;;;5035041;28;1846;-82
2020/12/23 04:58:45;;;;;;;;;;;;;;;;;;5036206;28;901;-81
2020/12/23 05:01:10;;;;;;;;;;;;;;;;;;5035942;28;1965;-81
2020/12/23 05:03:39;;;;;;;;;;;;;;;;;;5034202;28;1484;-81
2020/12/23 05:06:06;;;;;;;;;;;;;;;;;;5036207;28;1004;-81
2020/12/23 05:08:31;;;;;;;;;;;;;;;;;;5036216;28;909;-81
2020/12/23 05:10:57;;;;;;;;;;;;;;;;;;5034958;28;1296;-82
2020/12/23 05:13:25;;;;;;;;;;;;;;;;;;5036216;28;1318;-81
2020/12/23 05:15:50;;;;;;;;;;;;;;;;;;5034646;28;1023;-80
2020/12/23 05:18:15;;;;;;;;;;;;;;;;;;5034635;28;1289;-82
2020/12/23 05:20:40;;;;;;;;;;;;;;;;;;5034910;28;1220;-81
2020/12/23 05:23:06;;;;;;;;;;;;;;;;;;5034480;28;1924;-81
2020/12/23 05:25:32;;;;;;;;;;;;;;;;;;5034486;28;1542;-82
2020/12/23 05:27:57;;;;;;;;;;;;;;;;;;5036140;28;882;-81
2020/12/23 05:30:22;;;;;;;;;;;;;;;;;;5034283;28;1215;-80
2020/12/23 05:32:48;;;;;;;;;;;;;;;;;;5034405;28;1314;-81
2020/12/23 05:35:14;;;;;;;;;;;;;;;;;;5035653;28;821;-80
2020/12/23 05:37:39;;;;;;;;;;;;;;;;;;5035628;28;1486;-81
2020/12/23 05:40:04;;;;;;;;;;;;;;;;;;5035615;28;826;-81
2020/12/23 05:42:31;;;;;;;;;;;;;;;;;;5036685;28;1989;-81
2020/12/23 05:44:56;;;;;;;;;;;;;;;;;;5037122;28;968;-81
2020/12/23 05:47:23;;;;;;;;;;;;;;;;;;5035952;28;1361;-81
2020/12/23 05:49:49;;;;;;;;;;;;;;;;;;5068826;28;1526;-82
2020/12/23 05:52:15;;;;;;;;;;;;;;;;;;5036970;28;1307;-82
2020/12/23 05:54:40;;;;;;;;;;;;;;;;;;5034300;28;1524;-82
2020/12/23 05:57:05;;;;;;;;;;;;;;;;;;5034295;28;865;-82
2020/12/23 05:59:31;;;;;;;;;;;;;;;;;;5033891;28;1222;-82
2020/12/23 06:01:57;;;;;;;;;;;;;;;;;;5033588;28;1898;-82
2020/12/23 06:04:23;;;;;;;;;;;;;;;;;;5033885;28;900;-82
2020/12/23 06:06:51;;;;;;;;;;;;;;;;;;5033938;28;1611;-82
2020/12/23 06:09:19;;;;;;;;;;;;;;;;;;5034944;28;900;-81
2020/12/23 06:11:45;;;;;;;;;;;;;;;;;;5034758;28;1323;-81
2020/12/23 06:14:10;;;;;;;;;;;;;;;;;;5034374;28;821;-82
2020/12/23 06:16:35;;;;;;;;;;;;;;;;;;5034504;28;893;-82
2020/12/23 06:19:01;;;;;;;;;;;;;;;;;;5033892;28;1381;-82
2020/12/23 06:21:27;;;;;;;;;;;;;;;;;;5033838;28;1894;-81
2020/12/23 06:24:13;;;;;;;;;;;;;;;;;;5034938;28;905;-81
2020/12/23 06:26:39;;;;;;;;;;;;;;;;;;5033515;28;1299;-81
2020/12/23 06:29:06;;;;;;;;;;;;;;;;;;5033477;28;866;-81
2020/12/23 06:31:39;;;;;;;;;;;;;;;;;;5034508;28;1417;-81
2020/12/23 06:34:05;;;;;;;;;;;;;;;;;;5033418;28;1330;-82
2020/12/23 06:36:31;;;;;;;;;;;;;;;;;;5033427;28;1493;-81
2020/12/23 06:39:15;;;;;;;;;;;;;;;;;;5033480;28;1299;-81
2020/12/23 06:41:40;;;;;;;;;;;;;;;;;;5034194;28;1906;-81
2020/12/23 06:44:05;;;;;;;;;;;;;;;;;;5034703;28;854;-80
2020/12/23 06:46:49;;;;;;;;;;;;;;;;;;5033326;28;1280;-81
2020/12/23 06:49:14;;;;;;;;;;;;;;;;;;5034784;28;957;-82
2020/12/23 06:51:40;;;;;;;;;;;;;;;;;;5033095;28;1313;-81
2020/12/23 06:54:05;;;;;;;;;;;;;;;;;;5034662;28;901;-81
2020/12/23 06:56:44;;;;;;;;;;;;;;;;;;5033458;28;1342;-81
2020/12/23 06:59:29;;;;;;;;;;;;;;;;;;5034291;28;862;-82
2020/12/23 07:02:00;;;;;;;;;;;;;;;;;;5034640;28;1902;-81
2020/12/23 07:04:25;;;;;;;;;;;;;;;;;;5033507;28;1231;-81
2020/12/23 07:06:50;;;;;;;;;;;;;;;;;;5033121;28;1530;-81
2020/12/23 07:09:16;;;;;;;;;;;;;;;;;;5034344;28;865;-81
2020/12/23 07:11:43;;;;;;;;;;;;;;;;;;5034324;28;1345;-81
2020/12/23 07:14:13;;;;;;;;;;;;;;;;;;5033429;28;1128;-82
2020/12/23 07:16:39;;;;;;;;;;;;;;;;;;5033303;28;1036;-81
2020/12/23 07:19:05;;;;;;;;;;;;;;;;;;5034244;28;877;-81
2020/12/23 07:21:32;;;;;;;;;;;;;;;;;;5032773;28;1960;-81
2020/12/23 07:23:57;;;;;;;;;;;;;;;;;;5033108;28;1544;-81
2020/12/23 07:26:24;;;;;;;;;;;;;;;;;;5035590;28;1340;-82
2020/12/23 07:28:49;;;;;;;;;;;;;;;;;;5037859;28;1165;-82
2020/12/23 07:31:14;;;;;;;;;;;;;;;;;;5037417;28;1183;-82
2020/12/23 07:33:40;;;;;;;;;;;;;;;;;;5037323;28;1553;-82
2020/12/23 07:36:05;;;;;;;;;;;;;;;;;;5038592;28;876;-81
2020/12/23 07:38:32;;;;;;;;;;;;;;;;;;5036840;28;1141;-81
2020/12/23 07:40:58;;;;;;;;;;;;;;;;;;5037716;28;1882;-81
2020/12/23 07:43:23;;;;;;;;;;;;;;;;;;5037989;28;1354;-81
2020/12/23 07:45:50;;;;;;;;;;;;;;;;;;5036422;28;1767;-81
2020/12/23 07:48:16;;;;;;;;;;;;;;;;;;5036329;28;1311;-81
2020/12/23 07:50:43;;;;;;;;;;;;;;;;;;5036183;28;1194;-81
2020/12/23 07:53:28;;;;;;;;;;;;;;;;;;5036480;28;1420;-81
2020/12/23 07:55:56;;;;;;;;;;;;;;;;;;5035676;28;1408;-82
2020/12/23 07:58:22;;;;;;;;;;;;;;;;;;5037579;28;826;-80
2020/12/23 08:00:47;;;;;;;;;;;;;;;;;;5037043;28;943;-81
2020/12/23 08:03:12;;;;;;;;;;;;;;;;;;5037414;28;1902;-82
2020/12/23 08:05:38;;;;;;;;;;;;;;;;;;5037460;28;857;-81
2020/12/23 08:08:06;;;;;;;;;;;;;;;;;;5037339;28;877;-81
2020/12/23 08:10:32;;;;;;;;;;;;;;;;;;5035802;28;1196;-82
2020/12/23 08:12:58;;;;;;;;;;;;;;;;;;5036379;28;1263;-80
2020/12/23 08:15:24;;;;;;;;;;;;;;;;;;5037144;28;854;-80
2020/12/23 08:17:58;;;;;;;;;;;;;;;;;;5037168;28;893;-81
2020/12/23 08:20:23;;;;;;;;;;;;;;;;;;5035854;28;1371;-83
2020/12/23 08:22:48;;;;;;;;;;;;;;;;;;5035683;28;1898;-83
2020/12/23 08:25:17;;;;;;;;;;;;;;;;;;5036973;28;928;-82
2020/12/23 08:27:46;;;;;;;;;;;;;;;;;;5036898;28;1055;-81
2020/12/23 08:30:16;;;;;;;;;;;;;;;;;;5035822;28;1734;-82
2020/12/23 08:33:00;;;;;;;;;;;;;;;;;;5037118;28;1350;-82
2020/12/23 08:35:36;;;;;;;;;;;;;;;;;;5037378;28;818;-82
2020/12/23 08:38:02;;;;;;;;;;;;;;;;;;5036667;28;992;-82
2020/12/23 08:40:27;;;;;;;;;;;;;;;;;;5036553;28;913;-82
2020/12/23 08:42:54;;;;;;;;;;;;;;;;;;5036983;28;1947;-82
2020/12/23 08:45:24;;;;;;;;;;;;;;;;;;5035192;28;1316;-81
2020/12/23 08:47:49;;;;;;;;;;;;;;;;;;5036658;28;936;-82
2020/12/23 08:50:16;;;;;;;;;;;;;;;;;;5036543;28;905;-82
2020/12/23 08:52:44;;;;;;;;;;;;;;;;;;5035333;28;1401;-82
2020/12/23 08:55:18;;;;;;;;;;;;;;;;;;5035130;28;1025;-82
2020/12/23 08:57:43;;;;;;;;;;;;;;;;;;5035186;28;814;-82
2020/12/23 09:00:14;;;;;;;;;;;;;;;;;;5036086;28;828;-83
2020/12/23 09:02:42;;;;;;;;;;;;;;;;;;5034881;28;1886;-83
2020/12/23 09:05:17;;;;;;;;;;;;;;;;;;5036328;28;952;-81
2020/12/23 09:07:43;;;;;;;;;;;;;;;;;;5036430;28;865;-82
2020/12/23 09:10:12;;;;;;;;;;;;;;;;;;5034717;28;1192;-82
2020/12/23 09:12:37;;;;;;;;;;;;;;;;;;5034751;28;1468;-82
2020/12/23 09:15:11;;;;;;;;;;;;;;;;;;5036150;28;809;-82
2020/12/23 09:17:36;;;;;;;;;;;;;;;;;;5035929;28;930;-82
2020/12/23 09:20:03;;;;;;;;;;;;;;;;;;5035940;28;909;-82
2020/12/23 09:22:36;;;;;;;;;;;;;;;;;;5035737;28;1948;-80
2020/12/23 09:25:16;;;;;;;;;;;;;;;;;;5034494;28;1204;-81
2020/12/23 09:27:46;;;;;;;;;;;;;;;;;;5034449;28;1479;-80
2020/12/23 09:30:11;;;;;;;;;;;;;;;;;;5034190;28;1359;-81
2020/12/23 09:32:49;;;;;;;;;;;;;;;;;;5036024;28;1293;-80
2020/12/23 09:35:15;;;;;;;;;;;;;;;;;;5034348;28;1739;-79
2020/12/23 09:37:41;;;;;;;;;;;;;;;;;;5035794;28;834;-79
2020/12/23 09:40:07;;;;;;;;;;;;;;;;;;5035509;28;848;-80
2020/12/23 09:42:33;;;;;;;;;;;;;;;;;;5034081;28;1957;-80
2020/12/23 09:44:58;;;;;;;;;;;;;;;;;;5035461;28;841;-80
2020/12/23 09:47:24;;;;;;;;;;;;;;;;;;5034269;28;1302;-79
2020/12/23 09:49:49;;;;;;;;;;;;;;;;;;5035010;28;885;-79
2020/12/23 09:52:14;;;;;;;;;;;;;;;;;;5035446;28;1322;-80
2020/12/23 09:54:39;;;;;;;;;;;;;;;;;;5034009;28;1223;-81
2020/12/23 09:57:05;;;;;;;;;;;;;;;;;;5034240;28;1146;-80
2020/12/23 09:59:30;;;;;;;;;;;;;;;;;;5035086;28;937;-80
2020/12/23 10:01:55;;;;;;;;;;;;;;;;;;5033604;28;1894;-80
2020/12/23 10:04:20;;;;;;;;;;;;;;;;;;5035173;28;933;-81
2020/12/23 10:06:46;;;;;;;;;;;;;;;;;;5033884;28;1219;-81
2020/12/23 10:09:11;;;;;;;;;;;;;;;;;;5035495;28;909;-82
2020/12/23 10:11:36;;;;;;;;;;;;;;;;;;5033778;28;1460;-81
2020/12/23 10:14:01;;;;;;;;;;;;;;;;;;5035160;28;940;-81
2020/12/23 10:16:33;;;;;;;;;;;;;;;;;;5035179;28;810;-81
2020/12/23 10:18:59;;;;;;;;;;;;;;;;;;5034974;28;913;-82
2020/12/23 10:21:24;;;;;;;;;;;;;;;;;;5033350;28;1882;-81
2020/12/23 10:23:49;;;;;;;;;;;;;;;;;;5034964;28;913;-82
2020/12/23 10:26:15;;;;;;;;;;;;;;;;;;5034969;28;894;-81
2020/12/23 10:28:40;;;;;;;;;;;;;;;;;;5034908;28;893;-81
2020/12/23 10:31:06;;;;;;;;;;;;;;;;;;5033549;28;1240;-80
2020/12/23 10:33:34;;;;;;;;;;;;;;;;;;5034841;28;1412;-81
2020/12/23 10:35:59;;;;;;;;;;;;;;;;;;5033430;28;814;-81
2020/12/23 10:38:24;;;;;;;;;;;;;;;;;;5034723;28;825;-80
2020/12/23 10:40:49;;;;;;;;;;;;;;;;;;5034632;28;869;-80
2020/12/23 10:43:15;;;;;;;;;;;;;;;;;;5033358;28;1930;-80
2020/12/23 10:45:40;;;;;;;;;;;;;;;;;;5030070;28;1731;-82
2020/12/23 10:48:05;;;;;;;;;;;;;;;;;;5034813;28;865;-82
2020/12/23 10:50:30;;;;;;;;;;;;;;;;;;5034409;28;803;-81
2020/12/23 10:52:56;;;;;;;;;;;;;;;;;;5034531;28;1290;-86
2020/12/23 10:55:21;;;;;;;;;;;;;;;;;;5033252;28;1215;-81
2020/12/23 10:57:46;;;;;;;;;;;;;;;;;;5034333;28;860;-81
2020/12/23 11:00:11;;;;;;;;;;;;;;;;;;5034147;28;906;-83
2020/12/23 11:02:37;;;;;;;;;;;;;;;;;;5036724;28;1955;-82
2020/12/23 11:05:02;;;;;;;;;;;;;;;;;;5037206;28;830;-81
2020/12/23 11:07:27;;;;;;;;;;;;;;;;;;5037172;28;1324;-81
2020/12/23 11:09:52;;;;;;;;;;;;;;;;;;5038315;28;869;-81
2020/12/23 11:12:18;;;;;;;;;;;;;;;;;;5036915;28;1643;-81
2020/12/23 11:14:44;;;;;;;;;;;;;;;;;;5037319;28;1287;-81
2020/12/23 11:17:10;;;;;;;;;;;;;;;;;;5037111;28;1354;-80
2020/12/23 11:19:35;;;;;;;;;;;;;;;;;;5038154;28;806;-80
2020/12/23 11:22:00;;;;;;;;;;;;;;;;;;5038416;28;1955;-81
2020/12/23 11:24:26;;;;;;;;;;;;;;;;;;5037975;28;869;-80
2020/12/23 11:26:51;;;;;;;;;;;;;;;;;;5036851;28;1474;-81
2020/12/23 11:29:17;;;;;;;;;;;;;;;;;;5036897;28;1187;-81
2020/12/23 11:31:42;;;;;;;;;;;;;;;;;;5036477;28;1369;-80
2020/12/23 11:34:07;;;;;;;;;;;;;;;;;;5037850;28;1000;-80
2020/12/23 11:36:32;;;;;;;;;;;;;;;;;;5037754;28;861;-80
2020/12/23 11:39:01;;;;;;;;;;;;;;;;;;5036858;28;905;-81
2020/12/23 11:41:26;;;;;;;;;;;;;;;;;;5037505;28;1883;-80
2020/12/23 11:43:52;;;;;;;;;;;;;;;;;;5037005;28;1498;-80
2020/12/23 11:46:17;;;;;;;;;;;;;;;;;;5036234;28;1286;-82
2020/12/23 11:48:42;;;;;;;;;;;;;;;;;;5037789;28;877;-81
2020/12/23 11:51:07;;;;;;;;;;;;;;;;;;5037290;28;1062;-80
2020/12/23 11:53:33;;;;;;;;;;;;;;;;;;5036200;28;1676;-81
2020/12/23 11:55:58;;;;;;;;;;;;;;;;;;5037565;28;849;-81
2020/12/23 11:58:23;;;;;;;;;;;;;;;;;;5037735;28;822;-80
2020/12/23 12:00:50;;;;;;;;;;;;;;;;;;5037392;28;840;-81
2020/12/23 12:03:16;;;;;;;;;;;;;;;;;;5035998;28;1902;-80
2020/12/23 12:05:41;;;;;;;;;;;;;;;;;;5037317;28;992;-80
2020/12/23 12:08:08;;;;;;;;;;;;;;;;;;5037171;28;865;-82
2020/12/23 12:10:33;;;;;;;;;;;;;;;;;;5035758;28;1330;-81
2020/12/23 12:12:59;;;;;;;;;;;;;;;;;;5036164;28;1325;-80
2020/12/23 12:15:24;;;;;;;;;;;;;;;;;;5036226;28;886;-80
2020/12/23 12:17:49;;;;;;;;;;;;;;;;;;5036106;28;1126;-80
2020/12/23 12:20:17;;;;;;;;;;;;;;;;;;5037170;28;877;-80
2020/12/23 12:22:42;;;;;;;;;;;;;;;;;;5034812;28;1882;-82
2020/12/23 12:25:07;;;;;;;;;;;;;;;;;;5033799;28;2013;-81
2020/12/23 12:27:33;;;;;;;;;;;;;;;;;;5018134;28;1967;-82
2020/12/23 12:29:58;;;;;;;;;;;;;;;;;;5046258;28;1465;-82
2020/12/23 12:32:23;;;;;;;;;;;;;;;;;;5020181;28;1774;-82
2020/12/23 12:34:49;;;;;;;;;;;;;;;;;;5031975;28;1723;-83
2020/12/23 12:37:14;;;;;;;;;;;;;;;;;;5030390;28;1534;-81
2020/12/23 12:39:40;;;;;;;;;;;;;;;;;;5020713;28;1730;-85
2020/12/23 12:42:05;;;;;;;;;;;;;;;;;;5030515;28;1890;-86
2020/12/23 12:44:31;;;;;;;;;;;;;;;;;;5020826;28;1421;-86
2020/12/23 12:46:56;;;;;;;;;;;;;;;;;;5035368;28;894;-83
2020/12/23 12:49:22;;;;;;;;;;;;;;;;;;5036387;28;1471;-87
2020/12/23 12:51:47;;;;;;;;;;;;;;;;;;5041320;28;1813;-83
2020/12/23 12:54:13;;;;;;;;;;;;;;;;;;5029450;28;1982;-83
2020/12/23 12:56:38;;;;;;;;;;;;;;;;;;5015426;28;898;-86
2020/12/23 12:59:03;;;;;;;;;;;;;;;;;;5017426;28;830;-84
2020/12/23 13:01:39;;;;;;;;;;;;;;;;;;5018270;28;2362;-82
2020/12/23 13:04:04;;;;;;;;;;;;;;;;;;5019186;28;1368;-85
2020/12/23 13:06:30;;;;;;;;;;;;;;;;;;5024174;28;1682;-84
2020/12/23 13:08:56;;;;;;;;;;;;;;;;;;5024095;28;1745;-82
2020/12/23 13:11:22;;;;;;;;;;;;;;;;;;5025794;28;1658;-82
2020/12/23 13:13:47;;;;;;;;;;;;;;;;;;5026802;28;1101;-80
2020/12/23 13:16:13;;;;;;;;;;;;;;;;;;5035878;28;921;-84
2020/12/23 13:18:39;;;;;;;;;;;;;;;;;;5034708;28;1529;-80
2020/12/23 13:21:04;;;;;;;;;;;;;;;;;;5031747;28;1951;-83
2020/12/23 13:23:29;;;;;;;;;;;;;;;;;;5034256;28;1862;-80
2020/12/23 13:25:55;;;;;;;;;;;;;;;;;;5033000;28;1628;-80
2020/12/23 13:28:22;;;;;;;;;;;;;;;;;;5034532;28;1612;-80
2020/12/23 13:30:47;;;;;;;;;;;;;;;;;;5034392;28;1375;-80
2020/12/23 13:33:12;;;;;;;;;;;;;;;;;;5034572;28;1350;-79
2020/12/23 13:35:38;;;;;;;;;;;;;;;;;;5035249;28;826;-80
2020/12/23 13:38:03;;;;;;;;;;;;;;;;;;5035378;28;2046;-80
2020/12/23 13:40:28;;;;;;;;;;;;;;;;;;5035163;28;872;-80
2020/12/23 13:42:53;;;;;;;;;;;;;;;;;;5034230;28;1871;-80
2020/12/23 13:45:19;;;;;;;;;;;;;;;;;;5033947;28;944;-80
2020/12/23 13:47:44;;;;;;;;;;;;;;;;;;5029892;28;1732;-80
2020/12/23 13:50:09;;;;;;;;;;;;;;;;;;5016685;28;2031;-80
2020/12/23 13:52:34;;;;;;;;;;;;;;;;;;5020550;28;1596;-80
2020/12/23 13:55:00;;;;;;;;;;;;;;;;;;5035018;28;1076;-80
2020/12/23 13:57:25;;;;;;;;;;;;;;;;;;5035185;28;838;-80
2020/12/23 13:59:50;;;;;;;;;;;;;;;;;;5034541;28;2058;-80
2020/12/23 14:02:16;;;;;;;;;;;;;;;;;;5029279;28;1931;-83
2020/12/23 14:04:41;;;;;;;;;;;;;;;;;;5033749;28;1365;-80
2020/12/23 14:07:06;;;;;;;;;;;;;;;;;;5032366;28;1729;-80
2020/12/23 14:09:32;;;;;;;;;;;;;;;;;;5017067;28;1784;-80
2020/12/23 14:11:57;;;;;;;;;;;;;;;;;;5029846;28;1622;-80
2020/12/23 14:14:22;;;;;;;;;;;;;;;;;;5024361;28;1694;-79
2020/12/23 14:16:47;;;;;;;;;;;;;;;;;;5021473;28;1650;-80
2020/12/23 14:19:13;;;;;;;;;;;;;;;;;;5032166;28;1596;-80
2020/12/23 14:21:38;;;;;;;;;;;;;;;;;;5025607;28;1970;-80
2020/12/23 14:24:03;;;;;;;;;;;;;;;;;;5020697;28;1728;-80
2020/12/23 14:26:29;;;;;;;;;;;;;;;;;;5030124;28;1460;-80
2020/12/23 14:28:54;;;;;;;;;;;;;;;;;;5016225;28;914;-80
2020/12/23 14:31:19;;;;;;;;;;;;;;;;;;5024386;28;1466;-80
2020/12/23 14:33:44;;;;;;;;;;;;;;;;;;5022990;28;1503;-80
2020/12/23 14:36:19;;;;;;;;;;;;;;;;;;5033640;28;1753;-80
2020/12/23 14:38:44;;;;;;;;;;;;;;;;;;5030396;28;1622;-83
2020/12/23 14:41:10;;;;;;;;;;;;;;;;;;5020392;28;1948;-83
2020/12/23 14:43:35;;;;;;;;;;;;;;;;;;5017715;28;1463;-83
2020/12/23 14:46:01;;;;;;;;;;;;;;;;;;5029614;28;1117;-83
2020/12/23 14:48:26;;;;;;;;;;;;;;;;;;5033179;28;1410;-83
2020/12/23 14:50:51;;;;;;;;;;;;;;;;;;5019991;28;1617;-83
2020/12/23 14:53:17;;;;;;;;;;;;;;;;;;5015208;28;1499;-83
2020/12/23 14:55:42;;;;;;;;;;;;;;;;;;5028758;28;1811;-82
2020/12/23 14:58:07;;;;;;;;;;;;;;;;;;5027492;28;1556;-82
2020/12/23 15:00:32;;;;;;;;;;;;;;;;;;5037517;28;1983;-82
2020/12/23 15:02:58;;;;;;;;;;;;;;;;;;5015906;28;2095;-82
2020/12/23 15:05:23;;;;;;;;;;;;;;;;;;5019802;28;1964;-83
2020/12/23 15:07:49;;;;;;;;;;;;;;;;;;5031215;28;1896;-82
2020/12/23 15:10:15;;;;;;;;;;;;;;;;;;5021337;28;1719;-82
2020/12/23 15:12:40;;;;;;;;;;;;;;;;;;5021991;28;1625;-83
2020/12/23 15:15:05;;;;;;;;;;;;;;;;;;5024202;28;1543;-83
2020/12/23 15:17:33;;;;;;;;;;;;;;;;;;5026583;28;2002;-93
2020/12/23 15:19:59;;;;;;;;;;;;;;;;;;5033421;28;1982;-82
2020/12/23 15:22:24;;;;;;;;;;;;;;;;;;5026643;28;1875;-91
2020/12/23 15:24:49;;;;;;;;;;;;;;;;;;5031658;28;1663;-83
2020/12/23 15:27:14;;;;;;;;;;;;;;;;;;5027711;28;1539;-82
2020/12/23 15:29:39;;;;;;;;;;;;;;;;;;5023127;28;1468;-81
2020/12/23 15:32:05;;;;;;;;;;;;;;;;;;5017226;28;1846;-82
2020/12/23 15:34:30;;;;;;;;;;;;;;;;;;5020711;28;1271;-82
2020/12/23 15:36:56;;;;;;;;;;;;;;;;;;5022159;28;779;-82
2020/12/23 15:39:21;;;;;;;;;;;;;;;;;;5022113;28;1736;-81
2020/12/23 15:41:48;;;;;;;;;;;;;;;;;;5021285;28;1886;-81
2020/12/23 15:44:15;;;;;;;;;;;;;;;;;;5019050;28;1368;-81
2020/12/23 15:46:40;;;;;;;;;;;;;;;;;;5021360;28;1453;-88
2020/12/23 15:49:06;;;;;;;;;;;;;;;;;;5025222;28;1437;-83
2020/12/23 15:52:06;;;;;;;;;;;;;;;;;;5030507;28;1424;-93
2020/12/23 15:54:31;;;;;;;;;;;;;;;;;;5033042;28;1711;-94
2020/12/23 15:56:57;;;;;;;;;;;;;;;;;;5036181;28;1517;-92
2020/12/23 15:59:22;;;;;;;;;;;;;;;;;;5037544;28;1412;-91
2020/12/23 16:01:48;;;;;;;;;;;;;;;;;;5032126;28;1890;-90
2020/12/23 16:04:13;;;;;;;;;;;;;;;;;;5038393;28;1530;-92
2020/12/23 16:06:41;;;;;;;;;;;;;;;;;;5034720;28;1364;-87
2020/12/23 16:09:06;;;;;;;;;;;;;;;;;;5050722;28;1669;-90
2020/12/23 16:11:31;;;;;;;;;;;;;;;;;;5059693;28;1682;-92
2020/12/23 16:13:57;;;;;;;;;;;;;;;;;;5038655;28;1121;-92
2020/12/23 16:16:22;;;;;;;;;;;;;;;;;;5028340;28;1217;-91
2020/12/23 16:18:47;;;;;;;;;;;;;;;;;;5043221;28;1433;-92
2020/12/23 16:21:13;;;;;;;;;;;;;;;;;;5036064;28;1902;-92
2020/12/23 16:23:41;;;;;;;;;;;;;;;;;;5035823;28;1578;-92
2020/12/23 16:26:07;;;;;;;;;;;;;;;;;;5034531;28;1506;-91
2020/12/23 16:28:32;;;;;;;;;;;;;;;;;;5035396;28;1524;-93
2020/12/23 16:30:57;;;;;;;;;;;;;;;;;;5029783;28;1601;-90
2020/12/23 16:33:23;;;;;;;;;;;;;;;;;;5034700;28;1642;-92
2020/12/23 16:35:49;;;;;;;;;;;;;;;;;;5037879;28;1439;-88
2020/12/23 16:38:14;;;;;;;;;;;;;;;;;;5033833;28;1518;-92
2020/12/23 16:40:40;;;;;;;;;;;;;;;;;;5030341;28;1377;-91
2020/12/23 16:43:05;;;;;;;;;;;;;;;;;;5035917;28;1883;-90
2020/12/23 16:45:30;;;;;;;;;;;;;;;;;;5037014;28;1526;-91
2020/12/23 16:47:56;;;;;;;;;;;;;;;;;;5043888;28;1310;-91
2020/12/23 16:50:21;;;;;;;;;;;;;;;;;;5034679;28;1499;-91
2020/12/23 16:52:47;;;;;;;;;;;;;;;;;;5026845;28;1388;-92
2020/12/23 16:55:15;;;;;;;;;;;;;;;;;;5033345;28;1565;-92
2020/12/23 16:57:40;;;;;;;;;;;;;;;;;;5029957;28;1532;-92
2020/12/23 17:00:06;;;;;;;;;;;;;;;;;;5032753;28;1498;-89